Аэропорт: Нальчик. Нальчик

ICAO: URMN

METAR:
2019-07-23 18:00:00
URMN 231800Z 00000MPS 9999 TS BKN030CB OVC/// 20/17 Q1013 R24/010070 NOSIG RMK QFE723
METAR:
2019-07-23 17:00:00
TAF URMN 231700Z 2318/2403 09003MPS 9999 BKN020CB TEMPO 2318/2324 3100 -TSRA SCT011 BKN020CB